sensor_id;sensor_type;location;lat;lon;timestamp;P1;durP1;ratioP1;P2;durP2;ratioP2
8331;SDS011;4203;48.144;14.118;2024-03-02T00:02:39;52.80;;;25.33;;
8331;SDS011;4203;48.144;14.118;2024-03-02T00:05:31;55.37;;;24.63;;
8331;SDS011;4203;48.144;14.118;2024-03-02T00:08:06;55.00;;;26.30;;
8331;SDS011;4203;48.144;14.118;2024-03-02T00:10:57;50.92;;;25.17;;
8331;SDS011;4203;48.144;14.118;2024-03-02T00:13:41;49.17;;;23.37;;
8331;SDS011;4203;48.144;14.118;2024-03-02T00:16:40;43.53;;;22.80;;
8331;SDS011;4203;48.144;14.118;2024-03-02T00:19:33;49.70;;;24.00;;
8331;SDS011;4203;48.144;14.118;2024-03-02T00:22:31;46.47;;;21.63;;
8331;SDS011;4203;48.144;14.118;2024-03-02T00:25:23;45.50;;;22.83;;
8331;SDS011;4203;48.144;14.118;2024-03-02T00:28:13;40.53;;;22.17;;
8331;SDS011;4203;48.144;14.118;2024-03-02T00:30:56;51.80;;;24.73;;
8331;SDS011;4203;48.144;14.118;2024-03-02T00:33:41;42.70;;;21.27;;
8331;SDS011;4203;48.144;14.118;2024-03-02T00:36:33;51.65;;;25.60;;
8331;SDS011;4203;48.144;14.118;2024-03-02T00:39:02;50.53;;;25.20;;
8331;SDS011;4203;48.144;14.118;2024-03-02T00:41:56;54.47;;;25.73;;
8331;SDS011;4203;48.144;14.118;2024-03-02T00:44:26;46.40;;;24.38;;
8331;SDS011;4203;48.144;14.118;2024-03-02T00:47:02;48.37;;;24.47;;
8331;SDS011;4203;48.144;14.118;2024-03-02T00:49:48;53.73;;;22.90;;
8331;SDS011;4203;48.144;14.118;2024-03-02T00:52:30;42.30;;;23.47;;
8331;SDS011;4203;48.144;14.118;2024-03-02T00:55:06;40.90;;;21.90;;
8331;SDS011;4203;48.144;14.118;2024-03-02T00:57:48;39.30;;;21.20;;
8331;SDS011;4203;48.144;14.118;2024-03-02T01:03:09;40.83;;;20.83;;
8331;SDS011;4203;48.144;14.118;2024-03-02T01:05:43;42.70;;;21.13;;
8331;SDS011;4203;48.144;14.118;2024-03-02T01:11:50;43.07;;;23.77;;
8331;SDS011;4203;48.144;14.118;2024-03-02T01:14:21;53.97;;;24.53;;
8331;SDS011;4203;48.144;14.118;2024-03-02T01:16:49;47.50;;;23.30;;
8331;SDS011;4203;48.144;14.118;2024-03-02T01:19:23;45.80;;;23.20;;
8331;SDS011;4203;48.144;14.118;2024-03-02T01:22:00;43.93;;;21.57;;
8331;SDS011;4203;48.144;14.118;2024-03-02T01:24:55;44.57;;;21.93;;
8331;SDS011;4203;48.144;14.118;2024-03-02T01:27:46;41.73;;;19.77;;
8331;SDS011;4203;48.144;14.118;2024-03-02T01:30:18;38.43;;;20.80;;
8331;SDS011;4203;48.144;14.118;2024-03-02T01:33:00;39.03;;;20.47;;
8331;SDS011;4203;48.144;14.118;2024-03-02T01:35:56;42.97;;;21.83;;
8331;SDS011;4203;48.144;14.118;2024-03-02T01:41:57;44.53;;;21.03;;
8331;SDS011;4203;48.144;14.118;2024-03-02T01:44:39;42.77;;;21.07;;
8331;SDS011;4203;48.144;14.118;2024-03-02T01:47:28;40.17;;;20.77;;
8331;SDS011;4203;48.144;14.118;2024-03-02T01:53:26;37.63;;;19.00;;
8331;SDS011;4203;48.144;14.118;2024-03-02T01:56:20;39.67;;;19.93;;
8331;SDS011;4203;48.144;14.118;2024-03-02T02:01:52;45.97;;;21.07;;
8331;SDS011;4203;48.144;14.118;2024-03-02T02:04:42;35.20;;;20.03;;
8331;SDS011;4203;48.144;14.118;2024-03-02T02:07:23;38.57;;;20.43;;
8331;SDS011;4203;48.144;14.118;2024-03-02T02:10:10;36.87;;;19.37;;
8331;SDS011;4203;48.144;14.118;2024-03-02T02:16:34;39.47;;;20.03;;
8331;SDS011;4203;48.144;14.118;2024-03-02T02:19:15;37.17;;;18.87;;
8331;SDS011;4203;48.144;14.118;2024-03-02T02:21:57;36.00;;;19.57;;
8331;SDS011;4203;48.144;14.118;2024-03-02T02:27:32;30.23;;;16.70;;
8331;SDS011;4203;48.144;14.118;2024-03-02T02:33:08;35.63;;;18.03;;
8331;SDS011;4203;48.144;14.118;2024-03-02T02:35:38;38.40;;;19.30;;
8331;SDS011;4203;48.144;14.118;2024-03-02T02:38:19;31.13;;;18.03;;
8331;SDS011;4203;48.144;14.118;2024-03-02T02:41:07;35.87;;;18.43;;
8331;SDS011;4203;48.144;14.118;2024-03-02T02:43:56;44.00;;;21.50;;
8331;SDS011;4203;48.144;14.118;2024-03-02T02:46:31;41.97;;;20.30;;
8331;SDS011;4203;48.144;14.118;2024-03-02T02:49:23;37.40;;;19.33;;
8331;SDS011;4203;48.144;14.118;2024-03-02T02:52:08;41.87;;;20.60;;
8331;SDS011;4203;48.144;14.118;2024-03-02T02:54:54;41.30;;;20.20;;
8331;SDS011;4203;48.144;14.118;2024-03-02T02:57:27;37.63;;;19.40;;
8331;SDS011;4203;48.144;14.118;2024-03-02T03:02:57;41.60;;;20.57;;
8331;SDS011;4203;48.144;14.118;2024-03-02T03:05:37;40.83;;;20.97;;
8331;SDS011;4203;48.144;14.118;2024-03-02T03:08:16;40.37;;;21.03;;
8331;SDS011;4203;48.144;14.118;2024-03-02T03:17:07;35.83;;;19.30;;
8331;SDS011;4203;48.144;14.118;2024-03-02T03:19:42;35.43;;;18.83;;
8331;SDS011;4203;48.144;14.118;2024-03-02T03:22:17;38.70;;;19.37;;
8331;SDS011;4203;48.144;14.118;2024-03-02T03:25:35;35.80;;;18.63;;
8331;SDS011;4203;48.144;14.118;2024-03-02T03:41:48;40.17;;;21.20;;
8331;SDS011;4203;48.144;14.118;2024-03-02T03:44:34;39.30;;;20.03;;
8331;SDS011;4203;48.144;14.118;2024-03-02T03:50:16;34.93;;;18.97;;
8331;SDS011;4203;48.144;14.118;2024-03-02T03:52:59;38.27;;;18.80;;
8331;SDS011;4203;48.144;14.118;2024-03-02T03:55:45;35.97;;;18.47;;
8331;SDS011;4203;48.144;14.118;2024-03-02T04:05:43;45.13;;;20.50;;
8331;SDS011;4203;48.144;14.118;2024-03-02T04:08:29;49.77;;;23.23;;
8331;SDS011;4203;48.144;14.118;2024-03-02T04:11:14;43.53;;;22.43;;
8331;SDS011;4203;48.144;14.118;2024-03-02T04:13:59;44.80;;;21.70;;
8331;SDS011;4203;48.144;14.118;2024-03-02T04:16:48;46.27;;;22.73;;
8331;SDS011;4203;48.144;14.118;2024-03-02T04:19:32;51.70;;;23.30;;
8331;SDS011;4203;48.144;14.118;2024-03-02T04:25:24;54.67;;;23.63;;
8331;SDS011;4203;48.144;14.118;2024-03-02T04:28:12;45.70;;;21.20;;
8331;SDS011;4203;48.144;14.118;2024-03-02T04:33:58;54.67;;;24.43;;
8331;SDS011;4203;48.144;14.118;2024-03-02T04:39:52;55.63;;;23.73;;
8331;SDS011;4203;48.144;14.118;2024-03-02T04:42:47;59.80;;;23.07;;
8331;SDS011;4203;48.144;14.118;2024-03-02T04:51:45;57.27;;;22.37;;
8331;SDS011;4203;48.144;14.118;2024-03-02T04:57:47;58.50;;;22.40;;
8331;SDS011;4203;48.144;14.118;2024-03-02T05:00:37;45.07;;;23.07;;
8331;SDS011;4203;48.144;14.118;2024-03-02T05:03:27;48.33;;;23.73;;
8331;SDS011;4203;48.144;14.118;2024-03-02T05:06:21;46.27;;;22.33;;
8331;SDS011;4203;48.144;14.118;2024-03-02T05:12:34;50.70;;;23.57;;
8331;SDS011;4203;48.144;14.118;2024-03-02T05:18:13;60.43;;;23.70;;
8331;SDS011;4203;48.144;14.118;2024-03-02T05:20:42;50.57;;;22.73;;
8331;SDS011;4203;48.144;14.118;2024-03-02T05:27:06;41.43;;;21.80;;
8331;SDS011;4203;48.144;14.118;2024-03-02T05:29:54;43.20;;;22.07;;
8331;SDS011;4203;48.144;14.118;2024-03-02T05:32:38;43.90;;;22.97;;
8331;SDS011;4203;48.144;14.118;2024-03-02T05:35:30;53.83;;;22.57;;
8331;SDS011;4203;48.144;14.118;2024-03-02T05:38:36;57.83;;;24.27;;
8331;SDS011;4203;48.144;14.118;2024-03-02T05:41:30;45.47;;;25.27;;
8331;SDS011;4203;48.144;14.118;2024-03-02T05:44:35;47.57;;;23.43;;
8331;SDS011;4203;48.144;14.118;2024-03-02T05:47:30;42.30;;;22.63;;
8331;SDS011;4203;48.144;14.118;2024-03-02T05:50:12;45.93;;;24.53;;
8331;SDS011;4203;48.144;14.118;2024-03-02T05:52:45;43.43;;;21.60;;
8331;SDS011;4203;48.144;14.118;2024-03-02T05:55:28;40.63;;;22.33;;
8331;SDS011;4203;48.144;14.118;2024-03-02T05:58:19;44.60;;;22.83;;
8331;SDS011;4203;48.144;14.118;2024-03-02T06:01:18;51.33;;;23.17;;
8331;SDS011;4203;48.144;14.118;2024-03-02T06:04:31;55.57;;;24.73;;
8331;SDS011;4203;48.144;14.118;2024-03-02T06:07:24;47.73;;;23.23;;
8331;SDS011;4203;48.144;14.118;2024-03-02T06:09:59;72.57;;;24.90;;
8331;SDS011;4203;48.144;14.118;2024-03-02T06:12:30;58.73;;;25.70;;
8331;SDS011;4203;48.144;14.118;2024-03-02T06:18:09;52.83;;;24.20;;
8331;SDS011;4203;48.144;14.118;2024-03-02T06:20:58;54.17;;;23.27;;
8331;SDS011;4203;48.144;14.118;2024-03-02T06:23:31;46.90;;;24.77;;
8331;SDS011;4203;48.144;14.118;2024-03-02T06:29:01;44.13;;;24.23;;
8331;SDS011;4203;48.144;14.118;2024-03-02T06:31:57;49.47;;;24.50;;
8331;SDS011;4203;48.144;14.118;2024-03-02T06:34:49;50.40;;;25.63;;
8331;SDS011;4203;48.144;14.118;2024-03-02T06:38:01;49.83;;;22.63;;
8331;SDS011;4203;48.144;14.118;2024-03-02T06:41:12;44.83;;;24.80;;
8331;SDS011;4203;48.144;14.118;2024-03-02T06:43:56;109.60;;;64.97;;
8331;SDS011;4203;48.144;14.118;2024-03-02T06:46:48;78.95;;;43.45;;
8331;SDS011;4203;48.144;14.118;2024-03-02T07:09:19;53.30;;;27.03;;
8331;SDS011;4203;48.144;14.118;2024-03-02T07:11:54;56.43;;;27.73;;
8331;SDS011;4203;48.144;14.118;2024-03-02T07:14:48;56.53;;;26.37;;
8331;SDS011;4203;48.144;14.118;2024-03-02T07:17:53;54.97;;;26.37;;
8331;SDS011;4203;48.144;14.118;2024-03-02T07:21:06;56.00;;;26.33;;
8331;SDS011;4203;48.144;14.118;2024-03-02T07:27:08;49.23;;;25.73;;
8331;SDS011;4203;48.144;14.118;2024-03-02T07:33:35;55.07;;;27.10;;
8331;SDS011;4203;48.144;14.118;2024-03-02T07:39:20;59.03;;;28.25;;
8331;SDS011;4203;48.144;14.118;2024-03-02T07:42:09;61.00;;;27.00;;
8331;SDS011;4203;48.144;14.118;2024-03-02T07:44:44;61.63;;;28.60;;
8331;SDS011;4203;48.144;14.118;2024-03-02T07:47:44;58.15;;;27.95;;
8331;SDS011;4203;48.144;14.118;2024-03-02T07:50:33;61.53;;;28.52;;
8331;SDS011;4203;48.144;14.118;2024-03-02T07:53:21;64.88;;;28.67;;
8331;SDS011;4203;48.144;14.118;2024-03-02T07:56:14;64.80;;;27.88;;
8331;SDS011;4203;48.144;14.118;2024-03-02T07:59:05;66.88;;;29.42;;
8331;SDS011;4203;48.144;14.118;2024-03-02T08:02:04;56.58;;;26.20;;
8331;SDS011;4203;48.144;14.118;2024-03-02T08:04:51;58.88;;;27.13;;
8331;SDS011;4203;48.144;14.118;2024-03-02T08:07:22;64.72;;;27.77;;
8331;SDS011;4203;48.144;14.118;2024-03-02T08:10:09;62.35;;;28.60;;
8331;SDS011;4203;48.144;14.118;2024-03-02T08:12:52;59.63;;;27.92;;
8331;SDS011;4203;48.144;14.118;2024-03-02T08:19:33;56.75;;;27.55;;
8331;SDS011;4203;48.144;14.118;2024-03-02T08:22:26;60.55;;;28.73;;
8331;SDS011;4203;48.144;14.118;2024-03-02T08:25:41;64.43;;;29.95;;
8331;SDS011;4203;48.144;14.118;2024-03-02T08:28:44;63.53;;;29.27;;
8331;SDS011;4203;48.144;14.118;2024-03-02T08:31:47;59.28;;;27.33;;
8331;SDS011;4203;48.144;14.118;2024-03-02T08:34:34;58.10;;;27.63;;
8331;SDS011;4203;48.144;14.118;2024-03-02T08:37:29;60.20;;;28.20;;
8331;SDS011;4203;48.144;14.118;2024-03-02T08:40:17;59.63;;;27.67;;
8331;SDS011;4203;48.144;14.118;2024-03-02T08:43:23;60.67;;;27.95;;
8331;SDS011;4203;48.144;14.118;2024-03-02T08:46:16;56.78;;;28.10;;
8331;SDS011;4203;48.144;14.118;2024-03-02T08:55:49;52.53;;;26.60;;
8331;SDS011;4203;48.144;14.118;2024-03-02T08:58:37;57.25;;;24.90;;
8331;SDS011;4203;48.144;14.118;2024-03-02T09:01:14;54.72;;;26.30;;
8331;SDS011;4203;48.144;14.118;2024-03-02T09:03:53;53.47;;;26.05;;
8331;SDS011;4203;48.144;14.118;2024-03-02T09:06:37;51.95;;;25.25;;
8331;SDS011;4203;48.144;14.118;2024-03-02T09:09:25;58.05;;;26.73;;
8331;SDS011;4203;48.144;14.118;2024-03-02T09:12:04;47.90;;;26.40;;
8331;SDS011;4203;48.144;14.118;2024-03-02T09:15:22;49.60;;;24.33;;
8331;SDS011;4203;48.144;14.118;2024-03-02T09:18:20;51.22;;;24.20;;
8331;SDS011;4203;48.144;14.118;2024-03-02T09:21:14;47.65;;;24.75;;
8331;SDS011;4203;48.144;14.118;2024-03-02T09:27:19;49.03;;;24.30;;
8331;SDS011;4203;48.144;14.118;2024-03-02T09:33:05;42.30;;;23.70;;
8331;SDS011;4203;48.144;14.118;2024-03-02T10:16:41;29.25;;;16.42;;
8331;SDS011;4203;48.144;14.118;2024-03-02T10:19:25;28.70;;;16.48;;
8331;SDS011;4203;48.144;14.118;2024-03-02T10:22:15;24.10;;;15.20;;
8331;SDS011;4203;48.144;14.118;2024-03-02T10:24:43;25.88;;;15.27;;
8331;SDS011;4203;48.144;14.118;2024-03-02T10:27:15;26.75;;;15.05;;
8331;SDS011;4203;48.144;14.118;2024-03-02T10:29:45;22.77;;;14.73;;
8331;SDS011;4203;48.144;14.118;2024-03-02T10:32:15;26.20;;;14.85;;
8331;SDS011;4203;48.144;14.118;2024-03-02T10:34:42;25.58;;;14.32;;
8331;SDS011;4203;48.144;14.118;2024-03-02T10:37:11;27.58;;;16.08;;
8331;SDS011;4203;48.144;14.118;2024-03-02T10:39:40;26.05;;;15.27;;
8331;SDS011;4203;48.144;14.118;2024-03-02T10:48:34;26.42;;;16.77;;
8331;SDS011;4203;48.144;14.118;2024-03-02T10:51:03;24.90;;;14.57;;
8331;SDS011;4203;48.144;14.118;2024-03-02T10:53:30;27.10;;;15.98;;
8331;SDS011;4203;48.144;14.118;2024-03-02T10:55:58;28.98;;;15.93;;
8331;SDS011;4203;48.144;14.118;2024-03-02T10:58:31;25.00;;;14.65;;
8331;SDS011;4203;48.144;14.118;2024-03-02T11:00:59;26.38;;;15.75;;
8331;SDS011;4203;48.144;14.118;2024-03-02T11:03:29;26.90;;;16.27;;
8331;SDS011;4203;48.144;14.118;2024-03-02T11:06:01;21.77;;;13.95;;
8331;SDS011;4203;48.144;14.118;2024-03-02T11:08:32;26.13;;;15.02;;
8331;SDS011;4203;48.144;14.118;2024-03-02T11:11:03;24.10;;;14.57;;
8331;SDS011;4203;48.144;14.118;2024-03-02T11:13:34;24.65;;;14.85;;
8331;SDS011;4203;48.144;14.118;2024-03-02T11:16:03;24.52;;;14.65;;
8331;SDS011;4203;48.144;14.118;2024-03-02T11:18:35;24.00;;;14.98;;
8331;SDS011;4203;48.144;14.118;2024-03-02T11:21:05;22.98;;;15.02;;
8331;SDS011;4203;48.144;14.118;2024-03-02T11:23:33;23.95;;;13.68;;
8331;SDS011;4203;48.144;14.118;2024-03-02T11:32:15;25.98;;;15.18;;
8331;SDS011;4203;48.144;14.118;2024-03-02T11:34:44;25.08;;;15.98;;
8331;SDS011;4203;48.144;14.118;2024-03-02T11:37:14;26.52;;;15.00;;
8331;SDS011;4203;48.144;14.118;2024-03-02T11:39:43;23.98;;;14.95;;
8331;SDS011;4203;48.144;14.118;2024-03-02T11:42:11;24.13;;;14.25;;
8331;SDS011;4203;48.144;14.118;2024-03-02T11:44:41;25.38;;;14.88;;
8331;SDS011;4203;48.144;14.118;2024-03-02T11:47:11;24.02;;;14.57;;
8331;SDS011;4203;48.144;14.118;2024-03-02T11:49:41;24.92;;;14.57;;
8331;SDS011;4203;48.144;14.118;2024-03-02T11:52:10;20.45;;;13.75;;
8331;SDS011;4203;48.144;14.118;2024-03-02T11:54:42;23.67;;;14.85;;
8331;SDS011;4203;48.144;14.118;2024-03-02T11:57:14;24.35;;;15.05;;
8331;SDS011;4203;48.144;14.118;2024-03-02T11:59:42;23.52;;;14.40;;
8331;SDS011;4203;48.144;14.118;2024-03-02T12:02:14;20.35;;;13.90;;
8331;SDS011;4203;48.144;14.118;2024-03-02T12:04:43;22.92;;;13.80;;
8331;SDS011;4203;48.144;14.118;2024-03-02T12:07:11;24.42;;;15.05;;
8331;SDS011;4203;48.144;14.118;2024-03-02T12:09:45;21.30;;;14.30;;
8331;SDS011;4203;48.144;14.118;2024-03-02T12:12:13;23.50;;;14.85;;
8331;SDS011;4203;48.144;14.118;2024-03-02T12:14:49;26.45;;;15.50;;
8331;SDS011;4203;48.144;14.118;2024-03-02T12:17:20;26.75;;;15.75;;
8331;SDS011;4203;48.144;14.118;2024-03-02T12:19:48;24.63;;;14.80;;
8331;SDS011;4203;48.144;14.118;2024-03-02T12:22:15;21.75;;;15.35;;
8331;SDS011;4203;48.144;14.118;2024-03-02T12:24:43;25.05;;;14.48;;
8331;SDS011;4203;48.144;14.118;2024-03-02T12:27:13;24.90;;;14.80;;
8331;SDS011;4203;48.144;14.118;2024-03-02T12:29:43;23.15;;;14.35;;
8331;SDS011;4203;48.144;14.118;2024-03-02T12:32:10;26.05;;;15.65;;
8331;SDS011;4203;48.144;14.118;2024-03-02T12:34:38;25.17;;;14.50;;
8331;SDS011;4203;48.144;14.118;2024-03-02T12:37:05;27.25;;;15.73;;
8331;SDS011;4203;48.144;14.118;2024-03-02T12:39:32;28.38;;;15.73;;
8331;SDS011;4203;48.144;14.118;2024-03-02T12:42:00;23.08;;;15.15;;
8331;SDS011;4203;48.144;14.118;2024-03-02T12:44:31;22.08;;;13.07;;
8331;SDS011;4203;48.144;14.118;2024-03-02T12:46:58;24.38;;;15.05;;
8331;SDS011;4203;48.144;14.118;2024-03-02T12:49:25;24.35;;;14.55;;
8331;SDS011;4203;48.144;14.118;2024-03-02T12:51:53;26.17;;;14.27;;
8331;SDS011;4203;48.144;14.118;2024-03-02T12:54:22;22.25;;;14.80;;
8331;SDS011;4203;48.144;14.118;2024-03-02T12:56:50;25.67;;;15.75;;
8331;SDS011;4203;48.144;14.118;2024-03-02T12:59:19;27.75;;;16.45;;
8331;SDS011;4203;48.144;14.118;2024-03-02T13:01:52;27.40;;;16.83;;
8331;SDS011;4203;48.144;14.118;2024-03-02T13:04:22;26.63;;;16.55;;
8331;SDS011;4203;48.144;14.118;2024-03-02T13:06:51;30.60;;;17.77;;
8331;SDS011;4203;48.144;14.118;2024-03-02T13:09:18;33.28;;;17.45;;
8331;SDS011;4203;48.144;14.118;2024-03-02T13:11:46;29.02;;;17.25;;
8331;SDS011;4203;48.144;14.118;2024-03-02T13:14:13;30.58;;;18.25;;
8331;SDS011;4203;48.144;14.118;2024-03-02T13:16:41;28.73;;;16.90;;
8331;SDS011;4203;48.144;14.118;2024-03-02T13:19:10;29.70;;;17.73;;
8331;SDS011;4203;48.144;14.118;2024-03-02T13:21:38;29.15;;;17.50;;
8331;SDS011;4203;48.144;14.118;2024-03-02T13:24:05;27.23;;;16.58;;
8331;SDS011;4203;48.144;14.118;2024-03-02T13:26:33;25.83;;;16.05;;
8331;SDS011;4203;48.144;14.118;2024-03-02T13:29:00;26.05;;;16.63;;
8331;SDS011;4203;48.144;14.118;2024-03-02T13:31:28;22.95;;;15.02;;
8331;SDS011;4203;48.144;14.118;2024-03-02T13:33:55;25.48;;;14.77;;
8331;SDS011;4203;48.144;14.118;2024-03-02T13:36:23;22.75;;;14.43;;
8331;SDS011;4203;48.144;14.118;2024-03-02T13:38:51;22.77;;;14.55;;
8331;SDS011;4203;48.144;14.118;2024-03-02T13:41:18;19.75;;;13.32;;
8331;SDS011;4203;48.144;14.118;2024-03-02T13:43:46;19.92;;;13.00;;
8331;SDS011;4203;48.144;14.118;2024-03-02T13:46:13;18.88;;;12.73;;
8331;SDS011;4203;48.144;14.118;2024-03-02T13:48:40;17.35;;;12.15;;
8331;SDS011;4203;48.144;14.118;2024-03-02T13:51:07;19.98;;;13.25;;
8331;SDS011;4203;48.144;14.118;2024-03-02T13:53:36;16.63;;;11.88;;
8331;SDS011;4203;48.144;14.118;2024-03-02T13:56:03;16.95;;;12.48;;
8331;SDS011;4203;48.144;14.118;2024-03-02T13:58:31;17.70;;;11.70;;
8331;SDS011;4203;48.144;14.118;2024-03-02T14:00:59;16.13;;;12.20;;
8331;SDS011;4203;48.144;14.118;2024-03-02T14:03:26;16.45;;;11.80;;
8331;SDS011;4203;48.144;14.118;2024-03-02T14:05:54;17.92;;;11.98;;
8331;SDS011;4203;48.144;14.118;2024-03-02T14:08:21;16.98;;;12.45;;
8331;SDS011;4203;48.144;14.118;2024-03-02T14:10:50;23.10;;;12.88;;
8331;SDS011;4203;48.144;14.118;2024-03-02T14:13:17;17.48;;;12.32;;
8331;SDS011;4203;48.144;14.118;2024-03-02T14:15:44;16.27;;;11.50;;
8331;SDS011;4203;48.144;14.118;2024-03-02T14:18:12;20.48;;;12.80;;
8331;SDS011;4203;48.144;14.118;2024-03-02T14:20:39;19.48;;;12.57;;
8331;SDS011;4203;48.144;14.118;2024-03-02T14:23:07;16.13;;;11.43;;
8331;SDS011;4203;48.144;14.118;2024-03-02T14:25:35;16.17;;;12.10;;
8331;SDS011;4203;48.144;14.118;2024-03-02T14:28:04;17.95;;;13.07;;
8331;SDS011;4203;48.144;14.118;2024-03-02T14:30:31;17.92;;;13.05;;
8331;SDS011;4203;48.144;14.118;2024-03-02T14:32:59;17.02;;;12.02;;
8331;SDS011;4203;48.144;14.118;2024-03-02T14:35:26;18.02;;;11.88;;
8331;SDS011;4203;48.144;14.118;2024-03-02T14:37:54;17.45;;;11.70;;
8331;SDS011;4203;48.144;14.118;2024-03-02T14:40:22;17.75;;;12.23;;
8331;SDS011;4203;48.144;14.118;2024-03-02T14:42:52;19.33;;;13.60;;
8331;SDS011;4203;48.144;14.118;2024-03-02T14:45:20;19.40;;;12.80;;
8331;SDS011;4203;48.144;14.118;2024-03-02T14:47:48;17.55;;;12.70;;
8331;SDS011;4203;48.144;14.118;2024-03-02T14:50:16;19.63;;;12.13;;
8331;SDS011;4203;48.144;14.118;2024-03-02T14:52:44;20.10;;;12.18;;
8331;SDS011;4203;48.144;14.118;2024-03-02T14:55:11;21.50;;;12.80;;
8331;SDS011;4203;48.144;14.118;2024-03-02T14:57:39;20.60;;;12.98;;
8331;SDS011;4203;48.144;14.118;2024-03-02T15:00:06;21.40;;;13.23;;
8331;SDS011;4203;48.144;14.118;2024-03-02T15:02:37;20.52;;;13.15;;
8331;SDS011;4203;48.144;14.118;2024-03-02T15:05:05;22.23;;;12.90;;
8331;SDS011;4203;48.144;14.118;2024-03-02T15:07:32;21.05;;;13.93;;
8331;SDS011;4203;48.144;14.118;2024-03-02T15:10:00;24.50;;;13.88;;
8331;SDS011;4203;48.144;14.118;2024-03-02T15:12:29;20.58;;;13.30;;
8331;SDS011;4203;48.144;14.118;2024-03-02T15:14:56;23.20;;;14.02;;
8331;SDS011;4203;48.144;14.118;2024-03-02T15:20:36;22.92;;;13.55;;
8331;SDS011;4203;48.144;14.118;2024-03-02T15:23:09;24.13;;;14.07;;
8331;SDS011;4203;48.144;14.118;2024-03-02T15:25:57;21.08;;;13.27;;
8331;SDS011;4203;48.144;14.118;2024-03-02T15:28:24;21.15;;;14.32;;
8331;SDS011;4203;48.144;14.118;2024-03-02T15:30:51;21.98;;;14.00;;
8331;SDS011;4203;48.144;14.118;2024-03-02T15:33:34;22.58;;;13.55;;
8331;SDS011;4203;48.144;14.118;2024-03-02T15:43:37;22.95;;;14.13;;
8331;SDS011;4203;48.144;14.118;2024-03-02T15:46:11;21.45;;;14.18;;
8331;SDS011;4203;48.144;14.118;2024-03-02T16:34:45;20.45;;;13.73;;
8331;SDS011;4203;48.144;14.118;2024-03-02T16:38:10;19.92;;;13.88;;
8331;SDS011;4203;48.144;14.118;2024-03-02T16:44:28;24.50;;;14.43;;
8331;SDS011;4203;48.144;14.118;2024-03-02T16:47:13;25.42;;;14.95;;
8331;SDS011;4203;48.144;14.118;2024-03-02T16:50:03;24.88;;;16.20;;
8331;SDS011;4203;48.144;14.118;2024-03-02T16:56:23;23.77;;;15.77;;
8331;SDS011;4203;48.144;14.118;2024-03-02T17:06:36;27.02;;;17.02;;
8331;SDS011;4203;48.144;14.118;2024-03-02T17:09:27;27.70;;;17.60;;
8331;SDS011;4203;48.144;14.118;2024-03-02T17:13:14;31.10;;;18.45;;
8331;SDS011;4203;48.144;14.118;2024-03-02T17:36:09;33.78;;;19.45;;
8331;SDS011;4203;48.144;14.118;2024-03-02T17:39:16;27.77;;;17.33;;
8331;SDS011;4203;48.144;14.118;2024-03-02T17:42:05;31.13;;;17.92;;
8331;SDS011;4203;48.144;14.118;2024-03-02T17:44:58;32.47;;;18.92;;
8331;SDS011;4203;48.144;14.118;2024-03-02T17:47:49;32.95;;;18.35;;
8331;SDS011;4203;48.144;14.118;2024-03-02T17:50:51;30.50;;;19.17;;
8331;SDS011;4203;48.144;14.118;2024-03-02T18:00:12;33.83;;;20.50;;
8331;SDS011;4203;48.144;14.118;2024-03-02T18:02:53;33.90;;;20.10;;
8331;SDS011;4203;48.144;14.118;2024-03-02T18:05:42;31.85;;;19.33;;
8331;SDS011;4203;48.144;14.118;2024-03-02T18:08:28;32.45;;;20.33;;
8331;SDS011;4203;48.144;14.118;2024-03-02T18:11:02;33.58;;;19.63;;
8331;SDS011;4203;48.144;14.118;2024-03-02T18:13:59;38.42;;;21.63;;
8331;SDS011;4203;48.144;14.118;2024-03-02T18:26:17;36.38;;;21.70;;
8331;SDS011;4203;48.144;14.118;2024-03-02T18:29:37;31.85;;;20.15;;
8331;SDS011;4203;48.144;14.118;2024-03-02T18:32:26;31.65;;;19.80;;
8331;SDS011;4203;48.144;14.118;2024-03-02T18:35:31;31.00;;;19.77;;
8331;SDS011;4203;48.144;14.118;2024-03-02T18:38:12;40.60;;;20.90;;
8331;SDS011;4203;48.144;14.118;2024-03-02T18:41:07;32.50;;;19.60;;
8331;SDS011;4203;48.144;14.118;2024-03-02T18:43:45;32.70;;;19.85;;
8331;SDS011;4203;48.144;14.118;2024-03-02T18:46:17;34.75;;;21.77;;
8331;SDS011;4203;48.144;14.118;2024-03-02T18:49:17;36.55;;;21.45;;
8331;SDS011;4203;48.144;14.118;2024-03-02T18:52:04;34.03;;;20.88;;
8331;SDS011;4203;48.144;14.118;2024-03-02T18:54:39;34.42;;;21.27;;
8331;SDS011;4203;48.144;14.118;2024-03-02T18:57:25;34.08;;;20.98;;
8331;SDS011;4203;48.144;14.118;2024-03-02T19:03:01;35.03;;;20.87;;
8331;SDS011;4203;48.144;14.118;2024-03-02T19:05:36;37.95;;;22.63;;
8331;SDS011;4203;48.144;14.118;2024-03-02T19:08:21;36.85;;;22.10;;
8331;SDS011;4203;48.144;14.118;2024-03-02T19:10:58;37.72;;;22.05;;
8331;SDS011;4203;48.144;14.118;2024-03-02T19:13:59;33.58;;;20.38;;
8331;SDS011;4203;48.144;14.118;2024-03-02T19:16:30;38.75;;;22.05;;
8331;SDS011;4203;48.144;14.118;2024-03-02T19:19:15;35.53;;;21.73;;
8331;SDS011;4203;48.144;14.118;2024-03-02T19:22:01;33.15;;;20.63;;
8331;SDS011;4203;48.144;14.118;2024-03-02T19:24:36;35.38;;;21.02;;
8331;SDS011;4203;48.144;14.118;2024-03-02T19:27:20;34.47;;;21.80;;
8331;SDS011;4203;48.144;14.118;2024-03-02T19:30:09;34.75;;;22.13;;
8331;SDS011;4203;48.144;14.118;2024-03-02T19:33:03;35.35;;;22.02;;
8331;SDS011;4203;48.144;14.118;2024-03-02T19:35:49;36.58;;;22.65;;
8331;SDS011;4203;48.144;14.118;2024-03-02T19:38:34;36.42;;;21.42;;
8331;SDS011;4203;48.144;14.118;2024-03-02T19:41:37;40.72;;;23.35;;
8331;SDS011;4203;48.144;14.118;2024-03-02T19:44:13;36.28;;;22.75;;
8331;SDS011;4203;48.144;14.118;2024-03-02T19:46:51;39.10;;;23.17;;
8331;SDS011;4203;48.144;14.118;2024-03-02T19:49:37;35.45;;;22.10;;
8331;SDS011;4203;48.144;14.118;2024-03-02T19:55:19;38.80;;;21.88;;
8331;SDS011;4203;48.144;14.118;2024-03-02T19:57:56;34.80;;;22.00;;
8331;SDS011;4203;48.144;14.118;2024-03-02T20:00:32;39.80;;;23.00;;
8331;SDS011;4203;48.144;14.118;2024-03-02T20:03:23;37.67;;;21.02;;
8331;SDS011;4203;48.144;14.118;2024-03-02T20:06:00;35.13;;;21.05;;
8331;SDS011;4203;48.144;14.118;2024-03-02T20:11:48;31.67;;;20.00;;
8331;SDS011;4203;48.144;14.118;2024-03-02T20:14:34;36.50;;;20.48;;
8331;SDS011;4203;48.144;14.118;2024-03-02T20:17:08;36.00;;;21.70;;
8331;SDS011;4203;48.144;14.118;2024-03-02T20:20:05;35.80;;;21.08;;
8331;SDS011;4203;48.144;14.118;2024-03-02T20:22:45;31.55;;;20.15;;
8331;SDS011;4203;48.144;14.118;2024-03-02T20:25:18;33.65;;;20.50;;
8331;SDS011;4203;48.144;14.118;2024-03-02T20:27:48;30.63;;;20.73;;
8331;SDS011;4203;48.144;14.118;2024-03-02T20:31:07;35.35;;;20.48;;
8331;SDS011;4203;48.144;14.118;2024-03-02T20:33:45;33.20;;;20.30;;
8331;SDS011;4203;48.144;14.118;2024-03-02T20:36:37;33.87;;;20.60;;
8331;SDS011;4203;48.144;14.118;2024-03-02T20:39:26;34.60;;;20.40;;
8331;SDS011;4203;48.144;14.118;2024-03-02T20:42:07;33.80;;;20.65;;
8331;SDS011;4203;48.144;14.118;2024-03-02T20:44:37;38.67;;;21.70;;
8331;SDS011;4203;48.144;14.118;2024-03-02T20:47:18;33.10;;;19.50;;
8331;SDS011;4203;48.144;14.118;2024-03-02T20:50:00;33.50;;;20.63;;
8331;SDS011;4203;48.144;14.118;2024-03-02T20:55:50;31.73;;;19.37;;
8331;SDS011;4203;48.144;14.118;2024-03-02T20:58:23;32.97;;;19.67;;
8331;SDS011;4203;48.144;14.118;2024-03-02T21:00:53;31.40;;;18.93;;
8331;SDS011;4203;48.144;14.118;2024-03-02T21:03:31;29.57;;;19.80;;
8331;SDS011;4203;48.144;14.118;2024-03-02T21:06:04;31.57;;;19.97;;